createdAt,value
2017-11-15T00:02:01.645Z,18.05
2017-11-15T00:04:28.254Z,17.60
2017-11-15T00:06:55.960Z,18.02
2017-11-15T00:09:22.454Z,18.60
2017-11-15T00:11:49.656Z,19.12
2017-11-15T00:14:16.155Z,19.52
2017-11-15T00:16:43.330Z,18.50
2017-11-15T00:19:09.772Z,17.55
2017-11-15T00:21:36.223Z,19.52
2017-11-15T00:24:02.665Z,17.83
2017-11-15T00:26:29.111Z,18.15
2017-11-15T00:28:55.704Z,18.12
2017-11-15T00:31:22.994Z,17.42
2017-11-15T00:33:49.445Z,18.05
2017-11-15T00:36:15.865Z,17.98
2017-11-15T00:38:42.320Z,17.02
2017-11-15T00:41:08.760Z,18.27
2017-11-15T00:43:35.189Z,17.52
2017-11-15T00:46:01.905Z,17.15
2017-11-15T00:48:29.184Z,16.00
2017-11-15T00:50:55.654Z,16.02
2017-11-15T00:53:22.160Z,14.90
2017-11-15T00:55:48.569Z,15.48
2017-11-15T00:58:14.996Z,15.18
2017-11-15T01:00:41.437Z,17.42
2017-11-15T01:03:08.823Z,18.08
2017-11-15T01:05:36.019Z,15.77
2017-11-15T01:08:02.486Z,16.80
2017-11-15T01:10:29.430Z,15.85
2017-11-15T01:12:57.263Z,16.35
2017-11-15T01:15:23.763Z,14.90
2017-11-15T01:17:50.935Z,14.07
2017-11-15T01:20:17.382Z,14.60
2017-11-15T01:22:43.849Z,16.15
2017-11-15T01:25:17.365Z,16.25
2017-11-15T01:27:43.827Z,16.55
2017-11-15T01:30:10.261Z,15.27
2017-11-15T01:32:36.891Z,15.38
2017-11-15T01:35:03.305Z,15.80
2017-11-15T01:37:29.755Z,14.10
2017-11-15T01:39:56.181Z,14.40
2017-11-15T01:42:22.647Z,14.90
2017-11-15T01:44:49.097Z,14.95
2017-11-15T01:47:15.640Z,14.73
2017-11-15T01:49:42.072Z,14.30
2017-11-15T01:52:08.489Z,15.60
2017-11-15T01:54:34.948Z,13.13
2017-11-15T01:57:01.497Z,16.98
2017-11-15T01:59:27.958Z,15.65
2017-11-15T02:01:54.423Z,15.55
2017-11-15T02:04:20.897Z,15.30
2017-11-15T02:06:47.364Z,13.40
2017-11-15T02:09:14.719Z,13.38
2017-11-15T02:11:41.940Z,13.60
2017-11-15T02:14:08.348Z,15.27
2017-11-15T02:16:34.845Z,13.35
2017-11-15T02:19:02.888Z,15.50
2017-11-15T02:21:29.314Z,14.93
2017-11-15T02:23:55.736Z,17.15
2017-11-15T02:26:22.120Z,17.02
2017-11-15T02:28:48.601Z,15.52
2017-11-15T02:31:15.816Z,15.90
2017-11-15T02:33:42.245Z,15.00
2017-11-15T02:36:08.826Z,13.52
2017-11-15T02:38:36.022Z,13.98
2017-11-15T02:41:02.472Z,12.15
2017-11-15T02:43:29.008Z,16.62
2017-11-15T02:45:55.544Z,14.93
2017-11-15T02:48:21.969Z,13.93
2017-11-15T02:50:48.415Z,14.65
2017-11-15T02:53:14.839Z,12.82
2017-11-15T02:55:41.337Z,14.20
2017-11-15T02:58:07.784Z,12.43
2017-11-15T03:00:34.639Z,15.57
2017-11-15T03:03:01.795Z,13.73
2017-11-15T03:05:29.065Z,13.60
2017-11-15T03:07:56.220Z,14.00
2017-11-15T03:10:23.440Z,13.50
2017-11-15T03:12:49.865Z,11.32
2017-11-15T03:15:16.301Z,11.73
2017-11-15T03:17:42.851Z,11.77
2017-11-15T03:20:09.267Z,13.88
2017-11-15T03:22:35.718Z,12.88
2017-11-15T03:25:02.148Z,12.70
2017-11-15T03:27:28.644Z,13.52
2017-11-15T03:29:55.807Z,12.32
2017-11-15T03:32:23.031Z,12.73
2017-11-15T03:34:49.518Z,13.45
2017-11-15T03:37:16.147Z,13.18
2017-11-15T03:39:42.703Z,13.25
2017-11-15T03:42:09.151Z,17.12
2017-11-15T03:44:35.626Z,15.40
2017-11-15T03:47:02.084Z,14.20
2017-11-15T03:49:28.565Z,11.07
2017-11-15T03:51:55.249Z,11.73
2017-11-15T03:54:21.955Z,13.48
2017-11-15T03:56:48.362Z,8.50
2017-11-15T03:59:15.676Z,10.18
2017-11-15T04:01:42.121Z,10.25
2017-11-15T04:04:08.538Z,12.50
2017-11-15T04:06:35.066Z,11.35
2017-11-15T04:09:01.504Z,10.77
2017-11-15T04:11:28.064Z,10.07
2017-11-15T04:13:54.585Z,10.60
2017-11-15T04:16:21.087Z,11.88
2017-11-15T04:18:47.537Z,11.60
2017-11-15T04:21:14.964Z,11.40
2017-11-15T04:23:41.384Z,11.50
2017-11-15T04:26:07.805Z,12.85
2017-11-15T04:28:34.369Z,12.70
2017-11-15T04:31:00.957Z,12.95
2017-11-15T04:33:28.161Z,11.90
2017-11-15T04:35:54.577Z,12.70
2017-11-15T04:38:20.991Z,12.48
2017-11-15T04:40:48.206Z,12.05
2017-11-15T04:43:14.623Z,13.75
2017-11-15T04:45:41.146Z,12.35
2017-11-15T04:48:08.125Z,14.70
2017-11-15T04:50:34.548Z,12.88
2017-11-15T04:53:01.007Z,11.48
2017-11-15T04:55:27.433Z,10.45
2017-11-15T04:57:53.908Z,12.02
2017-11-15T05:00:20.332Z,12.00
2017-11-15T05:02:46.745Z,12.25
2017-11-15T05:05:13.224Z,11.20
2017-11-15T05:07:39.629Z,12.50
2017-11-15T05:10:06.757Z,11.10
2017-11-15T05:12:40.133Z,12.68
2017-11-15T05:15:07.388Z,11.35
2017-11-15T05:17:34.562Z,12.07
2017-11-15T05:20:00.969Z,12.90
2017-11-15T05:22:27.594Z,13.48
2017-11-15T05:24:54.037Z,11.60
2017-11-15T05:27:20.629Z,10.80
2017-11-15T05:29:47.034Z,10.48
2017-11-15T05:32:14.197Z,9.00
2017-11-15T05:34:41.491Z,7.20
2017-11-15T05:37:07.962Z,10.52
2017-11-15T05:39:35.982Z,10.43
2017-11-15T05:42:03.281Z,9.15
2017-11-15T05:44:29.708Z,5.20
2017-11-15T05:46:56.177Z,6.47
2017-11-15T05:49:22.713Z,6.45
2017-11-15T05:51:49.174Z,11.50
2017-11-15T05:54:15.708Z,5.60
2017-11-15T05:56:42.172Z,10.15
2017-11-15T05:59:09.353Z,10.80
2017-11-15T06:01:35.769Z,8.20
2017-11-15T06:04:02.978Z,7.65
2017-11-15T06:06:29.394Z,4.07
2017-11-15T06:08:55.847Z,9.85
2017-11-15T06:11:22.290Z,6.25
2017-11-15T06:13:48.899Z,10.30
2017-11-15T06:16:15.248Z,9.90
2017-11-15T06:18:41.796Z,10.13
2017-11-15T06:21:08.250Z,10.88
2017-11-15T06:23:34.747Z,9.63
2017-11-15T06:26:01.944Z,9.77
2017-11-15T06:28:28.517Z,10.80
2017-11-15T06:30:55.012Z,11.75
2017-11-15T06:33:21.463Z,10.57
2017-11-15T06:35:47.889Z,11.40
2017-11-15T06:38:16.232Z,10.30
2017-11-15T06:40:42.685Z,10.90
2017-11-15T06:43:09.358Z,11.68
2017-11-15T06:45:35.713Z,11.73
2017-11-15T06:48:02.133Z,10.52
2017-11-15T06:50:28.703Z,11.88
2017-11-15T06:52:55.203Z,11.43
2017-11-15T06:55:21.667Z,10.55
2017-11-15T06:57:48.167Z,10.68
2017-11-15T07:00:14.652Z,10.52
2017-11-15T07:02:41.875Z,9.23
2017-11-15T07:05:08.378Z,10.93
2017-11-15T07:07:35.585Z,9.85
2017-11-15T07:10:02.062Z,11.10
2017-11-15T07:12:28.737Z,9.32
2017-11-15T07:14:55.250Z,10.20
2017-11-15T07:17:21.662Z,10.65
2017-11-15T07:19:48.138Z,10.73
2017-11-15T07:22:15.330Z,8.40
2017-11-15T07:24:41.850Z,9.10
2017-11-15T07:27:08.288Z,12.82
2017-11-15T07:29:34.777Z,12.32
2017-11-15T07:32:01.228Z,11.18
2017-11-15T07:34:27.680Z,12.00
2017-11-15T07:36:54.871Z,10.55
2017-11-15T07:39:21.270Z,11.65
2017-11-15T07:41:48.416Z,11.45
2017-11-15T07:44:15.439Z,11.43
2017-11-15T07:46:42.745Z,11.52
2017-11-15T07:49:09.938Z,12.32
2017-11-15T07:51:36.882Z,9.35
2017-11-15T07:54:03.363Z,11.12
2017-11-15T07:56:29.809Z,9.60
2017-11-15T07:58:56.282Z,10.63
2017-11-15T08:01:22.725Z,11.90
2017-11-15T08:03:49.200Z,12.10
2017-11-15T08:06:15.660Z,9.95
2017-11-15T08:08:43.020Z,9.85
2017-11-15T08:11:09.714Z,10.07
2017-11-15T08:13:36.115Z,10.60
2017-11-15T08:16:02.631Z,10.52
2017-11-15T08:18:29.116Z,10.77
2017-11-15T08:20:55.587Z,11.20
2017-11-15T08:23:22.128Z,10.45
2017-11-15T08:25:48.569Z,10.95
2017-11-15T08:28:15.053Z,9.73
2017-11-15T08:30:42.405Z,9.88
2017-11-15T08:33:09.023Z,10.00
2017-11-15T08:35:35.469Z,8.93
2017-11-15T08:38:16.912Z,10.88
2017-11-15T08:40:43.342Z,9.95
2017-11-15T08:43:09.758Z,9.63
2017-11-15T08:45:36.974Z,10.23
2017-11-15T08:48:03.409Z,9.80
2017-11-15T08:50:29.985Z,10.70
2017-11-15T08:52:57.133Z,9.80
2017-11-15T08:55:23.600Z,10.75
2017-11-15T08:57:50.085Z,9.82
2017-11-15T09:00:16.529Z,11.43
2017-11-15T09:02:43.110Z,10.85
2017-11-15T09:05:10.354Z,10.83
2017-11-15T09:07:37.028Z,11.05
2017-11-15T09:10:04.246Z,9.48
2017-11-15T09:12:30.680Z,9.23
2017-11-15T09:14:57.224Z,8.82
2017-11-15T09:17:23.664Z,8.15
2017-11-15T09:19:50.257Z,9.98
2017-11-15T09:22:16.808Z,9.70
2017-11-15T09:24:43.288Z,7.18
2017-11-15T09:27:09.764Z,9.60
2017-11-15T09:29:36.245Z,10.10
2017-11-15T09:32:02.692Z,8.85
2017-11-15T09:34:29.114Z,8.68
2017-11-15T09:36:55.592Z,9.45
2017-11-15T09:39:22.969Z,9.05
2017-11-15T09:41:50.145Z,9.10
2017-11-15T09:44:16.673Z,8.77
2017-11-15T09:46:50.303Z,9.00
2017-11-15T09:49:16.973Z,6.80
2017-11-15T09:51:43.457Z,7.47
2017-11-15T09:54:10.720Z,4.72
2017-11-15T09:56:37.233Z,10.23
2017-11-15T09:59:03.754Z,8.57
2017-11-15T10:01:30.183Z,8.65
2017-11-15T10:03:56.628Z,8.95
2017-11-15T10:06:23.145Z,7.93
2017-11-15T10:08:49.597Z,8.63
2017-11-15T10:11:16.086Z,9.75
2017-11-15T10:13:43.498Z,9.85
2017-11-15T10:16:09.922Z,9.60
2017-11-15T10:18:36.751Z,7.40
2017-11-15T10:21:03.213Z,9.50
2017-11-15T10:23:29.648Z,9.50
2017-11-15T10:25:56.158Z,8.85
2017-11-15T10:28:22.613Z,9.00
2017-11-15T10:30:49.081Z,9.60
2017-11-15T10:33:15.576Z,9.48
2017-11-15T10:35:42.017Z,9.65
2017-11-15T10:38:08.471Z,9.75
2017-11-15T10:40:34.972Z,9.20
2017-11-15T10:43:02.172Z,8.88
2017-11-15T10:45:28.656Z,9.13
2017-11-15T10:47:55.178Z,9.50
2017-11-15T10:50:21.734Z,8.90
2017-11-15T10:52:48.262Z,10.35
2017-11-15T10:55:15.142Z,8.05
2017-11-15T10:57:42.375Z,8.80
2017-11-15T11:00:09.586Z,9.52
2017-11-15T11:02:36.029Z,9.02
2017-11-15T11:05:02.461Z,8.48
2017-11-15T11:07:29.056Z,9.82
2017-11-15T11:09:56.257Z,9.38
2017-11-15T11:12:22.736Z,9.80
2017-11-15T11:14:49.307Z,8.80
2017-11-15T11:17:16.492Z,9.02
2017-11-15T11:19:42.964Z,8.95
2017-11-15T11:22:09.376Z,7.85
2017-11-15T11:24:37.591Z,9.05
2017-11-15T11:27:04.148Z,9.10
2017-11-15T11:29:30.771Z,7.90
2017-11-15T11:31:57.229Z,8.10
2017-11-15T11:34:23.694Z,7.00
2017-11-15T11:36:50.236Z,9.30
2017-11-15T11:39:16.753Z,8.73
2017-11-15T11:41:43.937Z,10.45
2017-11-15T11:44:10.444Z,6.72
2017-11-15T11:46:37.063Z,7.78
2017-11-15T11:49:03.468Z,9.50
2017-11-15T11:51:29.928Z,9.25
2017-11-15T11:53:56.482Z,8.90
2017-11-15T11:56:23.110Z,8.90
2017-11-15T11:58:49.624Z,8.85
2017-11-15T12:01:16.065Z,7.03
2017-11-15T12:03:42.553Z,10.82
2017-11-15T12:06:09.065Z,8.80
2017-11-15T12:08:37.037Z,9.35
2017-11-15T12:11:05.105Z,10.65
2017-11-15T12:13:31.720Z,8.15
2017-11-15T12:15:58.962Z,11.30
2017-11-15T12:18:26.156Z,8.20
2017-11-15T12:20:52.724Z,8.43
2017-11-15T12:23:19.213Z,5.82
2017-11-15T12:25:46.433Z,7.53
2017-11-15T12:28:13.668Z,7.10
2017-11-15T12:30:40.108Z,5.62
2017-11-15T12:33:06.583Z,7.95
2017-11-15T12:35:33.172Z,9.73
2017-11-15T12:37:59.653Z,9.65
2017-11-15T12:40:26.172Z,9.50
2017-11-15T12:42:52.729Z,8.63
2017-11-15T12:45:19.249Z,10.45
2017-11-15T12:47:45.714Z,9.48
2017-11-15T12:50:12.202Z,9.35
2017-11-15T12:52:38.767Z,11.73
2017-11-15T12:55:05.285Z,10.75
2017-11-15T12:57:31.827Z,10.07
2017-11-15T12:59:58.260Z,8.00
2017-11-15T13:02:24.735Z,11.93
2017-11-15T13:04:51.327Z,10.10
2017-11-15T13:07:18.529Z,10.70
2017-11-15T13:09:45.320Z,8.87
2017-11-15T13:12:11.781Z,8.70
2017-11-15T13:14:38.271Z,9.80
2017-11-15T13:17:05.185Z,8.70
2017-11-15T13:19:31.676Z,8.87
2017-11-15T13:21:58.300Z,7.30
2017-11-15T13:24:24.870Z,9.03
2017-11-15T13:26:51.368Z,10.37
2017-11-15T13:29:17.925Z,10.40
2017-11-15T13:31:44.364Z,10.43
2017-11-15T13:34:10.889Z,9.17
2017-11-15T13:36:37.331Z,10.40
2017-11-15T13:39:03.789Z,8.97
2017-11-15T13:41:30.290Z,9.57
2017-11-15T13:43:58.248Z,9.20
2017-11-15T13:46:26.383Z,9.33
2017-11-15T13:48:53.005Z,9.13
2017-11-15T13:51:19.516Z,8.10
2017-11-15T13:53:45.997Z,9.07
2017-11-15T13:56:12.506Z,9.50
2017-11-15T13:58:39.059Z,9.00
2017-11-15T14:01:05.669Z,8.70
2017-11-15T14:03:32.549Z,9.03
2017-11-15T14:05:59.180Z,8.70
2017-11-15T14:08:25.901Z,8.60
2017-11-15T14:10:54.747Z,8.70
2017-11-15T14:13:21.306Z,9.70
2017-11-15T14:15:48.593Z,9.53
2017-11-15T14:18:15.862Z,9.17
2017-11-15T14:20:42.382Z,9.17
2017-11-15T14:23:09.578Z,9.10
2017-11-15T14:25:36.012Z,9.03
2017-11-15T14:28:02.568Z,7.80
2017-11-15T14:30:29.057Z,5.57
2017-11-15T14:32:56.273Z,11.70
2017-11-15T14:35:22.688Z,8.27
2017-11-15T14:37:49.256Z,10.70
2017-11-15T14:40:15.763Z,8.70
2017-11-15T14:42:42.205Z,9.23
2017-11-15T14:45:08.695Z,8.77
2017-11-15T14:47:35.210Z,7.10
2017-11-15T14:50:01.850Z,10.30
2017-11-15T14:52:28.405Z,9.38
2017-11-15T14:54:54.897Z,9.38
2017-11-15T14:57:21.344Z,7.32
2017-11-15T14:59:47.808Z,8.93
2017-11-15T15:02:14.300Z,4.95
2017-11-15T15:04:41.489Z,4.05
2017-11-15T15:07:07.992Z,9.40
2017-11-15T15:09:35.298Z,10.52
2017-11-15T15:12:01.837Z,7.37
2017-11-15T15:14:29.585Z,5.68
2017-11-15T15:16:56.144Z,9.07
2017-11-15T15:19:22.619Z,4.20
2017-11-15T15:21:50.327Z,7.00
2017-11-15T15:24:17.076Z,12.27
2017-11-15T15:26:43.649Z,11.85
2017-11-15T15:29:10.127Z,11.10
2017-11-15T15:31:36.709Z,14.13
2017-11-15T15:34:03.264Z,10.27
2017-11-15T15:36:29.849Z,12.00
2017-11-15T15:38:57.023Z,10.32
2017-11-15T15:41:24.264Z,7.25
2017-11-15T15:43:51.746Z,8.88
2017-11-15T15:46:18.947Z,6.87
2017-11-15T15:48:45.478Z,6.28
2017-11-15T15:51:11.929Z,6.93
2017-11-15T15:53:38.465Z,11.50
2017-11-15T15:56:04.946Z,13.32
2017-11-15T15:58:32.485Z,12.32
2017-11-15T16:00:59.146Z,16.10
2017-11-15T16:03:26.348Z,10.10
2017-11-15T16:05:52.970Z,9.45
2017-11-15T16:08:19.409Z,11.90
2017-11-15T16:10:46.028Z,9.90
2017-11-15T16:13:13.435Z,7.55
2017-11-15T16:15:39.904Z,9.52
2017-11-15T16:18:08.310Z,10.18
2017-11-15T16:20:34.950Z,10.98
2017-11-15T16:23:01.837Z,7.25
2017-11-15T16:25:28.458Z,10.20
2017-11-15T16:27:55.258Z,12.37
2017-11-15T16:30:21.839Z,13.13
2017-11-15T16:32:49.288Z,10.52
2017-11-15T16:35:16.558Z,8.88
2017-11-15T16:37:44.051Z,10.73
2017-11-15T16:40:10.515Z,7.82
2017-11-15T16:42:37.081Z,10.15
2017-11-15T16:45:05.065Z,10.80
2017-11-15T16:47:32.332Z,11.02
2017-11-15T16:49:59.604Z,11.40
2017-11-15T16:52:26.243Z,12.20
2017-11-15T16:54:53.549Z,12.80
2017-11-15T16:57:20.031Z,9.85
2017-11-15T16:59:47.499Z,17.12
2017-11-15T17:02:14.868Z,13.60
2017-11-15T17:04:42.155Z,16.02
2017-11-15T17:07:13.900Z,7.43
2017-11-15T17:09:40.542Z,14.60
2017-11-15T17:12:08.548Z,13.15
2017-11-15T17:14:35.405Z,13.48
2017-11-15T17:17:01.863Z,15.90
2017-11-15T17:19:28.633Z,15.32
2017-11-15T17:21:55.199Z,13.13
2017-11-15T17:24:22.159Z,15.10
2017-11-15T17:26:48.930Z,10.77
2017-11-15T17:29:17.500Z,12.60
2017-11-15T17:31:44.793Z,14.40
2017-11-15T17:34:12.077Z,12.95
2017-11-15T17:36:39.441Z,11.25
2017-11-15T17:39:05.942Z,8.13
2017-11-15T17:41:32.394Z,7.85
2017-11-15T17:44:00.451Z,7.40
2017-11-15T17:46:27.116Z,5.85
2017-11-15T17:48:53.628Z,7.80
2017-11-15T17:51:20.081Z,6.70
2017-11-15T17:53:46.825Z,7.25
2017-11-15T17:56:14.144Z,9.38
2017-11-15T17:58:40.653Z,6.43
2017-11-15T18:01:11.028Z,13.82
2017-11-15T18:03:42.560Z,11.32
2017-11-15T18:06:09.413Z,12.95
2017-11-15T18:08:35.994Z,10.35
2017-11-15T18:11:04.130Z,12.45
2017-11-15T18:13:31.037Z,13.43
2017-11-15T18:16:01.947Z,12.07
2017-11-15T18:18:28.903Z,11.80
2017-11-15T18:20:56.568Z,11.60
2017-11-15T18:23:24.016Z,9.88
2017-11-15T18:25:50.572Z,8.30
2017-11-15T18:28:17.225Z,12.00
2017-11-15T18:30:44.596Z,11.70
2017-11-15T18:33:26.749Z,9.38
2017-11-15T18:35:53.366Z,8.77
2017-11-15T18:38:20.885Z,7.72
2017-11-15T18:40:48.124Z,8.00
2017-11-15T18:43:14.596Z,10.00
2017-11-15T18:45:41.146Z,11.98
2017-11-15T18:48:08.377Z,7.12
2017-11-15T18:50:35.663Z,17.52
2017-11-15T18:53:02.237Z,13.43
2017-11-15T18:55:28.956Z,16.95
2017-11-15T18:57:56.221Z,14.18
2017-11-15T19:00:22.733Z,10.70
2017-11-15T19:02:49.246Z,13.10
2017-11-15T19:05:15.860Z,20.02
2017-11-15T19:07:42.352Z,13.98
2017-11-15T19:10:08.874Z,10.98
2017-11-15T19:12:35.382Z,13.38
2017-11-15T19:15:02.474Z,13.95
2017-11-15T19:17:29.055Z,20.70
2017-11-15T19:19:56.405Z,15.35
2017-11-15T19:22:23.680Z,15.95
2017-11-15T19:24:51.122Z,17.87
2017-11-15T19:27:18.349Z,14.48
2017-11-15T19:29:44.905Z,12.93
2017-11-15T19:32:11.408Z,13.32
2017-11-15T19:34:37.859Z,9.32
2017-11-15T19:37:04.395Z,8.50
2017-11-15T19:39:30.959Z,16.77
2017-11-15T19:41:57.477Z,20.55
2017-11-15T19:44:24.198Z,20.25
2017-11-15T19:46:50.861Z,20.48
2017-11-15T19:49:17.399Z,11.93
2017-11-15T19:51:43.888Z,23.25
2017-11-15T19:54:11.107Z,21.20
2017-11-15T19:56:37.581Z,19.45
2017-11-15T19:59:05.288Z,18.90
2017-11-15T20:14:39.181Z,19.02
2017-11-15T20:17:05.915Z,16.17
2017-11-15T20:19:32.440Z,24.40
2017-11-15T20:21:59.903Z,17.52
2017-11-15T20:24:27.177Z,15.00
2017-11-15T20:26:53.725Z,9.45
2017-11-15T20:29:20.325Z,15.52
2017-11-15T20:31:47.635Z,23.42
2017-11-15T20:34:14.249Z,23.42
2017-11-15T20:36:42.073Z,19.25
2017-11-15T20:39:08.745Z,20.90
2017-11-15T20:41:36.063Z,19.45
2017-11-15T20:44:02.573Z,17.98
2017-11-15T20:46:29.239Z,20.48
2017-11-15T20:48:56.389Z,18.42
2017-11-15T20:51:22.913Z,19.87
2017-11-15T21:03:41.011Z,18.55
2017-11-15T21:06:11.686Z,19.62
2017-11-15T21:08:38.216Z,21.17
2017-11-15T21:11:05.032Z,23.38
2017-11-15T21:13:39.256Z,20.02
2017-11-15T21:16:06.617Z,20.58
2017-11-15T21:18:33.206Z,18.00
2017-11-15T21:20:59.747Z,21.37
2017-11-15T21:23:26.264Z,18.73
2017-11-15T21:25:52.852Z,19.62
2017-11-15T21:28:19.368Z,18.25
2017-11-15T21:30:45.999Z,20.37
2017-11-15T21:33:12.701Z,20.77
2017-11-15T21:35:39.921Z,22.27
2017-11-15T21:38:06.466Z,19.42
2017-11-15T21:40:33.030Z,21.92
2017-11-15T21:42:59.616Z,22.45
2017-11-15T21:45:26.066Z,21.50
2017-11-15T21:47:52.700Z,23.33
2017-11-15T21:50:19.222Z,20.45
2017-11-15T21:52:45.741Z,20.10
2017-11-15T21:55:12.265Z,22.62
2017-11-15T21:57:38.895Z,20.92
2017-11-15T22:00:05.465Z,21.33
2017-11-15T22:02:33.419Z,19.73
2017-11-15T22:04:59.881Z,21.10
2017-11-15T22:07:27.333Z,20.27
2017-11-15T22:09:53.886Z,20.20
2017-11-15T22:12:21.184Z,19.40
2017-11-15T22:14:47.631Z,19.20
2017-11-15T22:17:14.044Z,20.20
2017-11-15T22:19:40.596Z,19.83
2017-11-15T22:22:07.039Z,22.33
2017-11-15T22:24:33.609Z,21.27
2017-11-15T22:27:00.058Z,20.25
2017-11-15T22:29:27.383Z,24.65
2017-11-15T22:31:53.913Z,21.95
2017-11-15T22:34:21.153Z,22.75
2017-11-15T22:36:49.681Z,22.87
2017-11-15T22:39:16.113Z,25.62
2017-11-15T22:41:42.633Z,23.67
2017-11-15T22:44:09.308Z,23.08
2017-11-15T22:46:35.779Z,18.75
2017-11-15T22:49:03.024Z,20.10
2017-11-15T22:51:29.577Z,20.88
2017-11-15T22:53:56.033Z,21.90
2017-11-15T22:56:23.245Z,20.35
2017-11-15T22:58:49.757Z,20.85
2017-11-15T23:01:16.370Z,20.27
2017-11-15T23:03:42.797Z,18.60
2017-11-15T23:06:10.022Z,17.98
2017-11-15T23:08:36.515Z,18.27
2017-11-15T23:11:02.996Z,17.80
2017-11-15T23:13:29.473Z,19.17
2017-11-15T23:15:56.841Z,19.80
2017-11-15T23:18:24.014Z,17.67
2017-11-15T23:20:50.556Z,16.30
2017-11-15T23:23:17.123Z,18.62
2017-11-15T23:25:43.596Z,13.05
2017-11-15T23:28:10.041Z,19.00
2017-11-15T23:30:37.936Z,16.27
2017-11-15T23:33:05.480Z,16.15
2017-11-15T23:35:32.717Z,14.52
2017-11-15T23:37:59.479Z,13.13
2017-11-15T23:40:25.925Z,18.15
2017-11-15T23:42:52.343Z,16.55
2017-11-15T23:45:18.875Z,16.00
2017-11-15T23:47:45.308Z,20.55
2017-11-15T23:50:12.318Z,17.85
2017-11-15T23:52:38.845Z,18.75
2017-11-15T23:55:06.060Z,18.48
2017-11-15T23:57:32.672Z,12.60
2017-11-15T23:59:59.419Z,16.27
